sensor_id;sensor_type;location;lat;lon;timestamp;pressure;altitude;pressure_sealevel;temperature;humidity
28432;BME280;15664;51.302;7.744;2023-01-31T00:01:21;83815.03;;;-146.98;95.25
28432;BME280;15664;51.302;7.744;2023-01-31T00:03:50;83815.03;;;-146.98;94.89
28432;BME280;15664;51.302;7.744;2023-01-31T00:06:22;83776.34;;;-146.98;94.89
28432;BME280;15664;51.302;7.744;2023-01-31T00:08:49;83808.91;;;-146.98;94.69
28432;BME280;15664;51.302;7.744;2023-01-31T00:11:17;83853.72;;;-146.98;94.92
28432;BME280;15664;51.302;7.744;2023-01-31T00:13:43;83813.00;;;-146.98;94.58
28432;BME280;15664;51.302;7.744;2023-01-31T00:16:09;83813.00;;;-146.98;94.99
28432;BME280;15664;51.302;7.744;2023-01-31T00:18:36;83788.56;;;-146.98;95.29
28432;BME280;15664;51.302;7.744;2023-01-31T00:21:11;83804.84;;;-146.98;95.48
28432;BME280;15664;51.302;7.744;2023-01-31T00:23:38;83764.13;;;-146.98;95.86
28432;BME280;15664;51.302;7.744;2023-01-31T00:26:15;83810.97;;;-146.98;95.81
28432;BME280;15664;51.302;7.744;2023-01-31T00:28:43;83788.56;;;-146.98;95.68
28432;BME280;15664;51.302;7.744;2023-01-31T00:31:10;83784.47;;;-146.98;95.90
28432;BME280;15664;51.302;7.744;2023-01-31T00:33:38;83796.69;;;-146.98;95.85
28432;BME280;15664;51.302;7.744;2023-01-31T00:36:15;83808.91;;;-146.98;96.06
28432;BME280;15664;51.302;7.744;2023-01-31T00:38:43;83768.19;;;-146.98;96.21
28432;BME280;15664;51.302;7.744;2023-01-31T00:41:10;83798.75;;;-146.98;96.08
28432;BME280;15664;51.302;7.744;2023-01-31T00:43:36;83786.50;;;-146.98;96.06
28432;BME280;15664;51.302;7.744;2023-01-31T00:46:03;83800.78;;;-146.98;95.97
28432;BME280;15664;51.302;7.744;2023-01-31T00:48:29;83792.63;;;-146.98;95.94
28432;BME280;15664;51.302;7.744;2023-01-31T00:50:55;83766.16;;;-146.98;95.75
28432;BME280;15664;51.302;7.744;2023-01-31T00:53:21;83792.63;;;-146.98;96.02
28432;BME280;15664;51.302;7.744;2023-01-31T00:55:59;83810.97;;;-146.98;95.91
28432;BME280;15664;51.302;7.744;2023-01-31T00:58:26;83833.34;;;-146.98;96.10
28432;BME280;15664;51.302;7.744;2023-01-31T01:00:53;83804.84;;;-146.98;96.10
28432;BME280;15664;51.302;7.744;2023-01-31T01:03:19;83808.91;;;-146.98;96.01
28432;BME280;15664;51.302;7.744;2023-01-31T01:05:44;83847.63;;;-146.98;95.87
28432;BME280;15664;51.302;7.744;2023-01-31T01:08:10;83849.66;;;-146.98;95.86
28432;BME280;15664;51.302;7.744;2023-01-31T01:10:37;83786.50;;;-146.98;96.24
28432;BME280;15664;51.302;7.744;2023-01-31T01:13:03;83843.53;;;-146.98;96.06
28432;BME280;15664;51.302;7.744;2023-01-31T01:15:30;83778.38;;;-146.98;95.95
28432;BME280;15664;51.302;7.744;2023-01-31T01:17:55;83804.84;;;-146.98;95.94
28432;BME280;15664;51.302;7.744;2023-01-31T01:20:21;83776.34;;;-146.98;95.56
28432;BME280;15664;51.302;7.744;2023-01-31T01:22:46;83823.19;;;-146.98;95.68
28432;BME280;15664;51.302;7.744;2023-01-31T01:25:12;83772.25;;;-146.98;95.53
28432;BME280;15664;51.302;7.744;2023-01-31T01:27:37;83774.28;;;-146.98;95.02
28432;BME280;15664;51.302;7.744;2023-01-31T01:30:04;83796.69;;;-146.98;95.19
28432;BME280;15664;51.302;7.744;2023-01-31T01:32:30;83780.41;;;-146.98;95.39
28432;BME280;15664;51.302;7.744;2023-01-31T01:34:56;83806.88;;;-146.98;95.51
28432;BME280;15664;51.302;7.744;2023-01-31T01:37:22;83780.41;;;-146.98;95.42
28432;BME280;15664;51.302;7.744;2023-01-31T01:39:51;83800.78;;;-146.98;95.60
28432;BME280;15664;51.302;7.744;2023-01-31T01:42:22;83784.47;;;-146.98;95.70
28432;BME280;15664;51.302;7.744;2023-01-31T01:44:55;83894.47;;;-146.98;95.92
28432;BME280;15664;51.302;7.744;2023-01-31T01:47:33;83817.06;;;-146.98;95.66
28432;BME280;15664;51.302;7.744;2023-01-31T01:50:14;83815.03;;;-146.98;95.34
28432;BME280;15664;51.302;7.744;2023-01-31T01:52:53;83853.72;;;-146.98;95.19
28432;BME280;15664;51.302;7.744;2023-01-31T01:55:44;83831.31;;;-146.98;95.09
28432;BME280;15664;51.302;7.744;2023-01-31T01:58:13;83776.34;;;-146.98;95.02
28432;BME280;15664;51.302;7.744;2023-01-31T02:00:40;83790.59;;;-146.98;95.05
28432;BME280;15664;51.302;7.744;2023-01-31T02:03:07;83798.75;;;-146.98;95.32
28432;BME280;15664;51.302;7.744;2023-01-31T02:05:40;83815.03;;;-146.98;95.77
28432;BME280;15664;51.302;7.744;2023-01-31T02:08:09;83855.75;;;-146.98;96.39
28432;BME280;15664;51.302;7.744;2023-01-31T02:10:48;83841.50;;;-146.98;96.98
28432;BME280;15664;51.302;7.744;2023-01-31T02:13:17;83808.91;;;-146.98;97.78
28432;BME280;15664;51.302;7.744;2023-01-31T02:15:44;83831.31;;;-146.98;98.36
28432;BME280;15664;51.302;7.744;2023-01-31T02:18:10;83817.06;;;-146.98;98.69
28432;BME280;15664;51.302;7.744;2023-01-31T02:21:06;83829.28;;;-146.98;99.10
28432;BME280;15664;51.302;7.744;2023-01-31T02:24:05;83890.38;;;-146.98;99.52
28432;BME280;15664;51.302;7.744;2023-01-31T02:29:33;83863.91;;;-146.98;99.80
28432;BME280;15664;51.302;7.744;2023-01-31T02:35:10;83853.72;;;-146.98;99.63
28432;BME280;15664;51.302;7.744;2023-01-31T02:38:22;83888.34;;;-146.98;99.57
28432;BME280;15664;51.302;7.744;2023-01-31T02:41:15;83833.34;;;-146.98;99.32
28432;BME280;15664;51.302;7.744;2023-01-31T02:49:44;83849.66;;;-146.98;98.74
28432;BME280;15664;51.302;7.744;2023-01-31T02:52:35;83853.72;;;-146.98;98.57
28432;BME280;15664;51.302;7.744;2023-01-31T02:55:31;83894.47;;;-146.98;98.65
28432;BME280;15664;51.302;7.744;2023-01-31T02:58:19;83837.44;;;-146.98;98.61
28432;BME280;15664;51.302;7.744;2023-01-31T03:00:47;83861.88;;;-146.98;98.37
28432;BME280;15664;51.302;7.744;2023-01-31T03:03:22;83804.84;;;-146.98;98.27
28432;BME280;15664;51.302;7.744;2023-01-31T03:08:34;83890.38;;;-146.98;98.11
28432;BME280;15664;51.302;7.744;2023-01-31T03:11:05;83857.81;;;-146.98;97.86
28432;BME280;15664;51.302;7.744;2023-01-31T03:13:43;83841.50;;;-146.98;98.00
28432;BME280;15664;51.302;7.744;2023-01-31T03:16:22;83882.25;;;-146.98;98.02
28432;BME280;15664;51.302;7.744;2023-01-31T03:19:15;83896.50;;;-146.98;98.02
28432;BME280;15664;51.302;7.744;2023-01-31T03:21:48;83800.78;;;-146.98;97.89
28432;BME280;15664;51.302;7.744;2023-01-31T03:24:18;83823.19;;;-146.98;98.20
28432;BME280;15664;51.302;7.744;2023-01-31T03:26:47;83827.25;;;-146.98;98.28
28432;BME280;15664;51.302;7.744;2023-01-31T03:29:14;83898.53;;;-146.98;98.47
28432;BME280;15664;51.302;7.744;2023-01-31T03:31:49;83861.88;;;-146.98;98.63
28432;BME280;15664;51.302;7.744;2023-01-31T03:34:18;83819.09;;;-146.98;98.67
28432;BME280;15664;51.302;7.744;2023-01-31T03:36:59;83882.25;;;-146.98;98.82
28432;BME280;15664;51.302;7.744;2023-01-31T03:39:51;83859.84;;;-146.98;98.70
28432;BME280;15664;51.302;7.744;2023-01-31T03:42:34;83880.22;;;-146.98;98.73
28432;BME280;15664;51.302;7.744;2023-01-31T03:45:13;83859.84;;;-146.98;98.55
28432;BME280;15664;51.302;7.744;2023-01-31T03:47:45;83863.91;;;-146.98;98.33
28432;BME280;15664;51.302;7.744;2023-01-31T03:50:20;83931.13;;;-146.98;98.04
28432;BME280;15664;51.302;7.744;2023-01-31T03:52:57;83861.88;;;-146.98;97.88
28432;BME280;15664;51.302;7.744;2023-01-31T03:55:37;83874.09;;;-146.98;97.97
28432;BME280;15664;51.302;7.744;2023-01-31T03:58:07;83823.19;;;-146.98;97.80
28432;BME280;15664;51.302;7.744;2023-01-31T04:00:35;83910.75;;;-146.98;97.90
28432;BME280;15664;51.302;7.744;2023-01-31T04:03:09;83865.94;;;-146.98;97.81
28432;BME280;15664;51.302;7.744;2023-01-31T04:05:36;83876.13;;;-146.98;98.20
28432;BME280;15664;51.302;7.744;2023-01-31T04:08:03;83853.72;;;-146.98;98.23
28432;BME280;15664;51.302;7.744;2023-01-31T04:10:31;83865.94;;;-146.98;98.16
28432;BME280;15664;51.302;7.744;2023-01-31T04:12:56;83870.03;;;-146.98;98.67
28432;BME280;15664;51.302;7.744;2023-01-31T04:15:22;83837.44;;;-146.98;98.24
28432;BME280;15664;51.302;7.744;2023-01-31T04:17:47;83800.78;;;-146.98;97.91
28432;BME280;15664;51.302;7.744;2023-01-31T04:20:13;83872.06;;;-146.98;97.79
28432;BME280;15664;51.302;7.744;2023-01-31T04:22:39;83808.91;;;-146.98;97.93
28432;BME280;15664;51.302;7.744;2023-01-31T04:25:05;83833.34;;;-146.98;98.01
28432;BME280;15664;51.302;7.744;2023-01-31T04:27:30;83853.72;;;-146.98;97.64
28432;BME280;15664;51.302;7.744;2023-01-31T04:29:56;83808.91;;;-146.98;97.46
28432;BME280;15664;51.302;7.744;2023-01-31T04:32:21;83863.91;;;-146.98;97.55
28432;BME280;15664;51.302;7.744;2023-01-31T04:34:47;83868.00;;;-146.98;97.51
28432;BME280;15664;51.302;7.744;2023-01-31T04:37:12;83847.63;;;-146.98;97.86
28432;BME280;15664;51.302;7.744;2023-01-31T04:39:38;83857.81;;;-146.98;97.62
28432;BME280;15664;51.302;7.744;2023-01-31T04:42:03;83833.34;;;-146.98;97.64
28432;BME280;15664;51.302;7.744;2023-01-31T04:44:29;83868.00;;;-146.98;97.82
28432;BME280;15664;51.302;7.744;2023-01-31T04:46:55;83865.94;;;-146.98;98.02
28432;BME280;15664;51.302;7.744;2023-01-31T04:49:21;83847.63;;;-146.98;98.22
28432;BME280;15664;51.302;7.744;2023-01-31T04:51:46;83843.53;;;-146.98;98.23
28432;BME280;15664;51.302;7.744;2023-01-31T04:54:12;83845.59;;;-146.98;98.37
28432;BME280;15664;51.302;7.744;2023-01-31T04:56:37;83845.59;;;-146.98;98.18
28432;BME280;15664;51.302;7.744;2023-01-31T04:59:03;83870.03;;;-146.98;98.49
28432;BME280;15664;51.302;7.744;2023-01-31T05:01:28;83865.94;;;-146.98;98.06
28432;BME280;15664;51.302;7.744;2023-01-31T05:03:54;83865.94;;;-146.98;97.88
28432;BME280;15664;51.302;7.744;2023-01-31T05:06:21;83878.16;;;-146.98;97.80
28432;BME280;15664;51.302;7.744;2023-01-31T05:08:46;83823.19;;;-146.98;98.04
28432;BME280;15664;51.302;7.744;2023-01-31T05:11:13;83859.84;;;-146.98;98.17
28432;BME280;15664;51.302;7.744;2023-01-31T05:13:39;83849.66;;;-146.98;98.38
28432;BME280;15664;51.302;7.744;2023-01-31T05:16:06;83870.03;;;-146.98;98.37
28432;BME280;15664;51.302;7.744;2023-01-31T05:18:32;83865.94;;;-146.98;98.45
28432;BME280;15664;51.302;7.744;2023-01-31T05:21:00;83853.72;;;-146.98;98.58
28432;BME280;15664;51.302;7.744;2023-01-31T05:23:26;83865.94;;;-146.98;98.71
28432;BME280;15664;51.302;7.744;2023-01-31T05:25:52;83853.72;;;-146.98;98.69
28432;BME280;15664;51.302;7.744;2023-01-31T05:28:17;83929.09;;;-146.98;98.93
28432;BME280;15664;51.302;7.744;2023-01-31T05:30:43;83843.53;;;-146.98;99.11
28432;BME280;15664;51.302;7.744;2023-01-31T05:33:08;83872.06;;;-146.98;99.29
28432;BME280;15664;51.302;7.744;2023-01-31T05:35:34;83855.75;;;-146.98;99.36
28432;BME280;15664;51.302;7.744;2023-01-31T05:37:59;83863.91;;;-146.98;99.38
28432;BME280;15664;51.302;7.744;2023-01-31T05:40:25;83902.63;;;-146.98;99.59
28432;BME280;15664;51.302;7.744;2023-01-31T05:42:55;83829.28;;;-146.98;99.57
28432;BME280;15664;51.302;7.744;2023-01-31T05:45:20;83847.63;;;-146.98;99.73
28432;BME280;15664;51.302;7.744;2023-01-31T05:47:47;83841.50;;;-146.98;100.00
28432;BME280;15664;51.302;7.744;2023-01-31T05:50:12;83865.94;;;-146.98;100.00
28432;BME280;15664;51.302;7.744;2023-01-31T05:52:38;83878.16;;;-146.98;100.00
28432;BME280;15664;51.302;7.744;2023-01-31T05:55:04;83825.22;;;-146.98;99.91
28432;BME280;15664;51.302;7.744;2023-01-31T05:57:30;83849.66;;;-146.98;100.00
28432;BME280;15664;51.302;7.744;2023-01-31T05:59:55;83851.69;;;-146.98;100.00
28432;BME280;15664;51.302;7.744;2023-01-31T06:02:21;83821.13;;;-146.98;100.00
28432;BME280;15664;51.302;7.744;2023-01-31T06:04:46;83808.91;;;-146.98;100.00
28432;BME280;15664;51.302;7.744;2023-01-31T06:07:12;83876.13;;;-146.98;100.00
28432;BME280;15664;51.302;7.744;2023-01-31T06:09:38;83882.25;;;-146.98;100.00
28432;BME280;15664;51.302;7.744;2023-01-31T06:12:05;83849.66;;;-146.98;100.00
28432;BME280;15664;51.302;7.744;2023-01-31T06:14:31;83810.97;;;-146.98;99.85
28432;BME280;15664;51.302;7.744;2023-01-31T06:16:57;83890.38;;;-146.98;99.65
28432;BME280;15664;51.302;7.744;2023-01-31T06:19:22;83914.84;;;-146.98;99.62
28432;BME280;15664;51.302;7.744;2023-01-31T06:21:50;83853.72;;;-146.98;99.49
28432;BME280;15664;51.302;7.744;2023-01-31T06:24:16;83819.09;;;-146.98;99.40
28432;BME280;15664;51.302;7.744;2023-01-31T06:26:42;83833.34;;;-146.98;99.16
28432;BME280;15664;51.302;7.744;2023-01-31T06:29:08;83878.16;;;-146.98;99.04
28432;BME280;15664;51.302;7.744;2023-01-31T06:31:34;83847.63;;;-146.98;98.61
28432;BME280;15664;51.302;7.744;2023-01-31T06:33:59;83853.72;;;-146.98;98.30
28432;BME280;15664;51.302;7.744;2023-01-31T06:36:25;83839.47;;;-146.98;97.85
28432;BME280;15664;51.302;7.744;2023-01-31T06:38:51;83827.25;;;-146.98;97.61
28432;BME280;15664;51.302;7.744;2023-01-31T06:41:20;83819.09;;;-146.98;97.35
28432;BME280;15664;51.302;7.744;2023-01-31T06:43:46;83829.28;;;-146.98;96.82
28432;BME280;15664;51.302;7.744;2023-01-31T06:46:11;83794.66;;;-146.98;96.72
28432;BME280;15664;51.302;7.744;2023-01-31T06:48:37;83817.06;;;-146.98;96.28
28432;BME280;15664;51.302;7.744;2023-01-31T06:51:02;83821.13;;;-146.98;95.97
28432;BME280;15664;51.302;7.744;2023-01-31T06:53:28;83825.22;;;-146.98;95.37
28432;BME280;15664;51.302;7.744;2023-01-31T06:55:54;83792.63;;;-146.98;95.07
28432;BME280;15664;51.302;7.744;2023-01-31T06:58:19;83817.06;;;-146.98;95.16
28432;BME280;15664;51.302;7.744;2023-01-31T07:00:44;83749.84;;;-146.98;94.93
28432;BME280;15664;51.302;7.744;2023-01-31T07:03:10;83813.00;;;-146.98;94.88
28432;BME280;15664;51.302;7.744;2023-01-31T07:05:37;83796.69;;;-146.98;94.67
28432;BME280;15664;51.302;7.744;2023-01-31T07:08:02;83806.88;;;-146.98;94.38
28432;BME280;15664;51.302;7.744;2023-01-31T07:10:28;83800.78;;;-146.98;94.25
28432;BME280;15664;51.302;7.744;2023-01-31T07:12:54;83825.22;;;-146.98;93.82
28432;BME280;15664;51.302;7.744;2023-01-31T07:15:20;83788.56;;;-146.98;93.50
28432;BME280;15664;51.302;7.744;2023-01-31T07:17:45;83788.56;;;-146.98;93.37
28432;BME280;15664;51.302;7.744;2023-01-31T07:20:11;83768.19;;;-146.98;93.32
28432;BME280;15664;51.302;7.744;2023-01-31T07:22:37;83813.00;;;-146.98;93.24
28432;BME280;15664;51.302;7.744;2023-01-31T07:25:03;83798.75;;;-146.98;93.15
28432;BME280;15664;51.302;7.744;2023-01-31T07:27:28;83764.13;;;-146.98;93.20
28432;BME280;15664;51.302;7.744;2023-01-31T07:29:54;83776.34;;;-146.98;93.46
28432;BME280;15664;51.302;7.744;2023-01-31T07:32:19;83802.81;;;-146.98;93.53
28432;BME280;15664;51.302;7.744;2023-01-31T07:34:45;83743.75;;;-146.98;93.35
28432;BME280;15664;51.302;7.744;2023-01-31T07:37:11;83823.19;;;-146.98;93.17
28432;BME280;15664;51.302;7.744;2023-01-31T07:39:36;83810.97;;;-146.98;93.21
28432;BME280;15664;51.302;7.744;2023-01-31T07:42:01;83772.25;;;-146.98;93.20
28432;BME280;15664;51.302;7.744;2023-01-31T07:44:27;83776.34;;;-146.98;93.26
28432;BME280;15664;51.302;7.744;2023-01-31T07:46:52;83780.41;;;-146.98;92.94
28432;BME280;15664;51.302;7.744;2023-01-31T07:49:19;83792.63;;;-146.98;93.13
28432;BME280;15664;51.302;7.744;2023-01-31T07:51:45;83751.91;;;-146.98;93.39
28432;BME280;15664;51.302;7.744;2023-01-31T07:54:10;83749.84;;;-146.98;93.21
28432;BME280;15664;51.302;7.744;2023-01-31T07:56:36;83770.22;;;-146.98;93.24
28432;BME280;15664;51.302;7.744;2023-01-31T07:59:01;83800.78;;;-146.98;93.29
28432;BME280;15664;51.302;7.744;2023-01-31T08:01:27;83786.50;;;-146.98;93.57
28432;BME280;15664;51.302;7.744;2023-01-31T08:04:14;83758.00;;;-146.98;93.44
28432;BME280;15664;51.302;7.744;2023-01-31T08:06:41;83802.81;;;-146.98;93.73
28432;BME280;15664;51.302;7.744;2023-01-31T08:09:08;83766.16;;;-146.98;93.47
28432;BME280;15664;51.302;7.744;2023-01-31T08:11:33;83768.19;;;-146.98;93.45
28432;BME280;15664;51.302;7.744;2023-01-31T08:13:58;83735.59;;;-146.98;93.36
28432;BME280;15664;51.302;7.744;2023-01-31T08:16:24;83784.47;;;-146.98;93.35
28432;BME280;15664;51.302;7.744;2023-01-31T08:18:51;83768.19;;;-146.98;92.88
28432;BME280;15664;51.302;7.744;2023-01-31T08:21:17;83743.75;;;-146.98;92.94
28432;BME280;15664;51.302;7.744;2023-01-31T08:23:43;83790.59;;;-146.98;93.06
28432;BME280;15664;51.302;7.744;2023-01-31T08:26:18;83772.25;;;-146.98;92.79
28432;BME280;15664;51.302;7.744;2023-01-31T08:28:45;83833.34;;;-146.98;92.86
28432;BME280;15664;51.302;7.744;2023-01-31T08:31:17;83717.28;;;-146.98;92.73
28432;BME280;15664;51.302;7.744;2023-01-31T08:33:43;83778.38;;;-146.98;92.86
28432;BME280;15664;51.302;7.744;2023-01-31T08:36:17;83739.66;;;-146.98;92.34
28432;BME280;15664;51.302;7.744;2023-01-31T08:38:42;83747.81;;;-146.98;92.66
28432;BME280;15664;51.302;7.744;2023-01-31T08:41:10;83776.34;;;-146.98;92.57
28432;BME280;15664;51.302;7.744;2023-01-31T08:43:36;83751.91;;;-146.98;92.76
28432;BME280;15664;51.302;7.744;2023-01-31T08:46:03;83731.53;;;-146.98;92.10
28432;BME280;15664;51.302;7.744;2023-01-31T08:48:31;83760.03;;;-146.98;91.79
28432;BME280;15664;51.302;7.744;2023-01-31T08:51:00;83725.41;;;-146.98;92.03
28432;BME280;15664;51.302;7.744;2023-01-31T08:53:26;83735.59;;;-146.98;92.23
28432;BME280;15664;51.302;7.744;2023-01-31T08:55:51;83755.97;;;-146.98;92.17
28432;BME280;15664;51.302;7.744;2023-01-31T08:58:17;83772.25;;;-146.98;92.29
28432;BME280;15664;51.302;7.744;2023-01-31T09:00:43;83743.75;;;-146.98;92.42
28432;BME280;15664;51.302;7.744;2023-01-31T09:03:13;83709.13;;;-146.98;92.26
28432;BME280;15664;51.302;7.744;2023-01-31T09:05:41;83753.94;;;-146.98;92.19
28432;BME280;15664;51.302;7.744;2023-01-31T09:08:06;83721.34;;;-146.98;92.53
28432;BME280;15664;51.302;7.744;2023-01-31T09:10:32;83788.56;;;-146.98;92.41
28432;BME280;15664;51.302;7.744;2023-01-31T09:12:59;83735.59;;;-146.98;92.25
28432;BME280;15664;51.302;7.744;2023-01-31T09:15:24;83727.44;;;-146.98;92.36
28432;BME280;15664;51.302;7.744;2023-01-31T09:17:51;83823.19;;;-146.98;92.73
28432;BME280;15664;51.302;7.744;2023-01-31T09:20:17;83751.91;;;-146.98;92.85
28432;BME280;15664;51.302;7.744;2023-01-31T09:22:43;83751.91;;;-146.98;93.42
28432;BME280;15664;51.302;7.744;2023-01-31T09:25:08;83780.41;;;-146.98;93.49
28432;BME280;15664;51.302;7.744;2023-01-31T09:27:35;83800.78;;;-146.98;93.62
28432;BME280;15664;51.302;7.744;2023-01-31T09:30:02;83774.28;;;-146.98;94.01
28432;BME280;15664;51.302;7.744;2023-01-31T09:32:28;83790.59;;;-146.98;95.30
28432;BME280;15664;51.302;7.744;2023-01-31T09:34:55;83764.13;;;-146.98;96.33
28432;BME280;15664;51.302;7.744;2023-01-31T09:37:20;83819.09;;;-146.98;97.22
28432;BME280;15664;51.302;7.744;2023-01-31T09:39:45;83788.56;;;-146.98;98.04
28432;BME280;15664;51.302;7.744;2023-01-31T09:42:37;83790.59;;;-146.98;98.56
28432;BME280;15664;51.302;7.744;2023-01-31T09:45:13;83853.72;;;-146.98;98.78
28432;BME280;15664;51.302;7.744;2023-01-31T09:47:43;83768.19;;;-146.98;99.32
28432;BME280;15664;51.302;7.744;2023-01-31T09:50:25;83861.88;;;-146.98;99.46
28432;BME280;15664;51.302;7.744;2023-01-31T09:52:52;83768.19;;;-146.98;99.63
28432;BME280;15664;51.302;7.744;2023-01-31T09:55:38;83760.03;;;-146.98;99.99
28432;BME280;15664;51.302;7.744;2023-01-31T10:01:08;83790.59;;;-146.98;100.00
28432;BME280;15664;51.302;7.744;2023-01-31T10:03:43;83764.13;;;-146.98;100.00
28432;BME280;15664;51.302;7.744;2023-01-31T10:06:29;83890.38;;;-146.98;100.00
28432;BME280;15664;51.302;7.744;2023-01-31T10:09:06;83821.13;;;-146.98;100.00
28432;BME280;15664;51.302;7.744;2023-01-31T10:11:58;83833.34;;;-146.98;100.00
28432;BME280;15664;51.302;7.744;2023-01-31T10:14:33;83813.00;;;-146.98;100.00
28432;BME280;15664;51.302;7.744;2023-01-31T10:22:36;83841.50;;;-146.98;100.00
28432;BME280;15664;51.302;7.744;2023-01-31T10:25:21;83829.28;;;-146.98;100.00
28432;BME280;15664;51.302;7.744;2023-01-31T10:27:53;83829.28;;;-146.98;100.00
28432;BME280;15664;51.302;7.744;2023-01-31T10:30:26;83804.84;;;-146.98;100.00
28432;BME280;15664;51.302;7.744;2023-01-31T10:32:59;83849.66;;;-146.98;100.00
28432;BME280;15664;51.302;7.744;2023-01-31T10:35:29;83808.91;;;-146.98;100.00
28432;BME280;15664;51.302;7.744;2023-01-31T10:38:04;83796.69;;;-146.98;100.00
28432;BME280;15664;51.302;7.744;2023-01-31T10:40:36;83849.66;;;-146.98;100.00
28432;BME280;15664;51.302;7.744;2023-01-31T10:43:15;83813.00;;;-146.98;100.00
28432;BME280;15664;51.302;7.744;2023-01-31T10:45:41;83762.06;;;-146.98;100.00
28432;BME280;15664;51.302;7.744;2023-01-31T10:48:36;83857.81;;;-146.98;100.00
28432;BME280;15664;51.302;7.744;2023-01-31T10:51:10;83800.78;;;-146.98;100.00
28432;BME280;15664;51.302;7.744;2023-01-31T10:56:10;83819.09;;;-146.98;100.00
28432;BME280;15664;51.302;7.744;2023-01-31T10:58:40;83835.41;;;-146.98;100.00
28432;BME280;15664;51.302;7.744;2023-01-31T11:01:06;83841.50;;;-146.98;100.00
28432;BME280;15664;51.302;7.744;2023-01-31T11:03:36;83784.47;;;-146.98;100.00
28432;BME280;15664;51.302;7.744;2023-01-31T11:06:02;83800.78;;;-146.98;100.00
28432;BME280;15664;51.302;7.744;2023-01-31T11:08:47;83802.81;;;-146.98;100.00
28432;BME280;15664;51.302;7.744;2023-01-31T11:11:17;83821.13;;;-146.98;100.00
28432;BME280;15664;51.302;7.744;2023-01-31T11:16:37;83764.13;;;-146.98;100.00
28432;BME280;15664;51.302;7.744;2023-01-31T11:19:17;83808.91;;;-146.98;100.00
28432;BME280;15664;51.302;7.744;2023-01-31T11:21:49;83782.44;;;-146.98;100.00
28432;BME280;15664;51.302;7.744;2023-01-31T11:24:17;83813.00;;;-146.98;100.00
28432;BME280;15664;51.302;7.744;2023-01-31T11:26:51;83782.44;;;-146.98;100.00
28432;BME280;15664;51.302;7.744;2023-01-31T11:29:27;83776.34;;;-146.98;100.00
28432;BME280;15664;51.302;7.744;2023-01-31T11:31:54;83792.63;;;-146.98;100.00
28432;BME280;15664;51.302;7.744;2023-01-31T11:34:28;83788.56;;;-146.98;100.00
28432;BME280;15664;51.302;7.744;2023-01-31T11:37:15;83796.69;;;-146.98;100.00
28432;BME280;15664;51.302;7.744;2023-01-31T11:39:41;83821.13;;;-146.98;100.00
28432;BME280;15664;51.302;7.744;2023-01-31T11:42:11;83790.59;;;-146.98;100.00
28432;BME280;15664;51.302;7.744;2023-01-31T11:44:53;83825.22;;;-146.98;100.00
28432;BME280;15664;51.302;7.744;2023-01-31T11:47:31;83808.91;;;-146.98;100.00
28432;BME280;15664;51.302;7.744;2023-01-31T11:49:58;83782.44;;;-146.98;100.00
28432;BME280;15664;51.302;7.744;2023-01-31T11:52:29;83788.56;;;-146.98;100.00
28432;BME280;15664;51.302;7.744;2023-01-31T11:54:58;83800.78;;;-146.98;100.00
28432;BME280;15664;51.302;7.744;2023-01-31T11:57:29;83804.84;;;-146.98;100.00
28432;BME280;15664;51.302;7.744;2023-01-31T11:59:58;83760.03;;;-146.98;100.00
28432;BME280;15664;51.302;7.744;2023-01-31T12:04:54;83770.22;;;-146.98;100.00
28432;BME280;15664;51.302;7.744;2023-01-31T12:07:26;83782.44;;;-146.98;100.00
28432;BME280;15664;51.302;7.744;2023-01-31T12:09:55;83778.38;;;-146.98;100.00
28432;BME280;15664;51.302;7.744;2023-01-31T12:12:29;83788.56;;;-146.98;100.00
28432;BME280;15664;51.302;7.744;2023-01-31T12:15:12;83764.13;;;-146.98;100.00
28432;BME280;15664;51.302;7.744;2023-01-31T12:17:44;83776.34;;;-146.98;100.00
28432;BME280;15664;51.302;7.744;2023-01-31T12:20:22;83813.00;;;-146.98;100.00
28432;BME280;15664;51.302;7.744;2023-01-31T12:23:01;83833.34;;;-146.98;100.00
28432;BME280;15664;51.302;7.744;2023-01-31T12:25:41;83833.34;;;-146.98;100.00
28432;BME280;15664;51.302;7.744;2023-01-31T12:28:42;83713.19;;;-146.98;100.00
28432;BME280;15664;51.302;7.744;2023-01-31T12:39:50;83735.59;;;-146.98;100.00
28432;BME280;15664;51.302;7.744;2023-01-31T12:45:20;83727.44;;;-146.98;100.00
28432;BME280;15664;51.302;7.744;2023-01-31T12:50:38;83715.22;;;-146.98;100.00
28432;BME280;15664;51.302;7.744;2023-01-31T12:53:37;83751.91;;;-146.98;100.00
28432;BME280;15664;51.302;7.744;2023-01-31T13:02:08;83745.78;;;-146.98;100.00
28432;BME280;15664;51.302;7.744;2023-01-31T13:04:44;83715.22;;;-146.98;100.00
28432;BME280;15664;51.302;7.744;2023-01-31T13:07:17;83760.03;;;-146.98;100.00
28432;BME280;15664;51.302;7.744;2023-01-31T13:09:47;83737.63;;;-146.98;100.00
28432;BME280;15664;51.302;7.744;2023-01-31T13:12:19;83696.91;;;-146.98;100.00
28432;BME280;15664;51.302;7.744;2023-01-31T13:14:49;83723.38;;;-146.98;100.00
28432;BME280;15664;51.302;7.744;2023-01-31T13:17:17;83711.16;;;-146.98;100.00
28432;BME280;15664;51.302;7.744;2023-01-31T13:19:54;83796.69;;;-146.98;100.00
28432;BME280;15664;51.302;7.744;2023-01-31T13:22:26;83725.41;;;-146.98;100.00
28432;BME280;15664;51.302;7.744;2023-01-31T13:27:59;83733.56;;;-146.98;100.00
28432;BME280;15664;51.302;7.744;2023-01-31T13:30:39;83725.41;;;-146.98;100.00
28432;BME280;15664;51.302;7.744;2023-01-31T13:33:17;83735.59;;;-146.98;100.00
28432;BME280;15664;51.302;7.744;2023-01-31T13:38:37;83764.13;;;-146.98;100.00
28432;BME280;15664;51.302;7.744;2023-01-31T13:41:05;83731.53;;;-146.98;100.00
28432;BME280;15664;51.302;7.744;2023-01-31T13:43:32;83743.75;;;-146.98;100.00
28432;BME280;15664;51.302;7.744;2023-01-31T13:46:02;83713.19;;;-146.98;100.00
28432;BME280;15664;51.302;7.744;2023-01-31T13:51:06;83694.88;;;-146.98;100.00
28432;BME280;15664;51.302;7.744;2023-01-31T13:53:45;83762.06;;;-146.98;100.00